If you wish to contribute or participate in the discussions about articles you are invited to join SKYbrary as a registered user

 Actions

Mount Fuji Shizuoka Airport

From SKYbrary Wiki

RJNS
Airport
ICAO: RJNS – IATA: FSZ
Summary
Name Mount Fuji Shizuoka Airport
Region Asia and Pacific
Territory Japan JP.gif
Location Makinohara, Shizuoka prefecture
Serving Shizuoka
Elevation 131.978 m
433 ft131.978 m
Coordinates 34° 47' 44.65" N, 138° 11' 18.58" E
Runways
Designator Length Width Surface ROPS


METAR
Observation RJNS 200300Z 23005KT 190V270 9999 FEW030 BKN045 15/02 Q1017
Station Shizuoka Airport
Date/Time 20 November 2019 03:00:00
Wind direction 230°
Wind speed 05 kts
Lowest cloud amount few clouds
Temperature 15°C
Dew point 2°C
Humidity 41%
QNH 1017 hPa
Weather condition n/a

Shizuoka Airport, also called Mt. Fuji Shizuoka Airport, is located in Shizuoka Prefecture Japan.

The airport is located in Makinohara and Shimada. It is 27 km14.579 nm
27,000 m
88,582.677 ft
southwest of Shizuoka Station and about 45 km from Hamamatsu, 80 km43.197 nm
80,000 m
262,467.192 ft
from Mt. Fuji, 130 km from Nagoya airport, and 175 km from Tokyo in a direct line.

Climatology

Humid subtropical climate (Köppen climate classification Cfa).

Maps

Terrain

Loading map...

Airport Layout

Loading map...


Accidents & Serious Incidents at or in vicinity of RJNS

None on SKYbrary